sensor_id;sensor_type;location;lat;lon;timestamp;P1;durP1;ratioP1;P2;durP2;ratioP2
295;SDS011;132;48.770;9.200;2023-05-07T09:37:30;144.43;;;137.50;;
295;SDS011;132;48.770;9.200;2023-05-07T09:41:11;228.87;;;217.90;;
295;SDS011;132;48.770;9.200;2023-05-07T09:43:58;278.87;;;265.57;;
295;SDS011;132;48.770;9.200;2023-05-07T09:46:42;239.53;;;228.07;;
295;SDS011;132;48.770;9.200;2023-05-07T09:49:22;188.43;;;179.43;;
295;SDS011;132;48.770;9.200;2023-05-07T09:57:55;316.30;;;301.20;;
295;SDS011;132;48.770;9.200;2023-05-07T10:01:36;298.73;;;284.47;;
295;SDS011;132;48.770;9.200;2023-05-07T10:04:05;343.40;;;327.00;;
295;SDS011;132;48.770;9.200;2023-05-07T10:12:52;215.27;;;204.97;;
295;SDS011;132;48.770;9.200;2023-05-07T10:15:30;256.83;;;244.57;;
295;SDS011;132;48.770;9.200;2023-05-07T10:18:41;375.90;;;357.93;;
295;SDS011;132;48.770;9.200;2023-05-07T10:21:44;346.33;;;329.80;;
295;SDS011;132;48.770;9.200;2023-05-07T10:25:18;301.23;;;286.83;;
295;SDS011;132;48.770;9.200;2023-05-07T10:27:49;236.40;;;225.07;;
295;SDS011;132;48.770;9.200;2023-05-07T10:32:49;326.53;;;310.93;;
295;SDS011;132;48.770;9.200;2023-05-07T10:35:25;359.17;;;342.00;;
295;SDS011;132;48.770;9.200;2023-05-07T10:37:55;326.23;;;310.67;;
295;SDS011;132;48.770;9.200;2023-05-07T10:40:25;35.17;;;33.47;;
295;SDS011;132;48.770;9.200;2023-05-07T10:43:11;31.43;;;29.90;;
295;SDS011;132;48.770;9.200;2023-05-07T10:45:43;387.67;;;369.13;;
295;SDS011;132;48.770;9.200;2023-05-07T10:51:42;5.10;;;3.53;;
295;SDS011;132;48.770;9.200;2023-05-07T10:54:23;4.17;;;3.50;;
295;SDS011;132;48.770;9.200;2023-05-07T11:20:58;6.63;;;6.23;;
295;SDS011;132;48.770;9.200;2023-05-07T11:27:03;6.13;;;3.80;;
295;SDS011;132;48.770;9.200;2023-05-07T11:32:36;5.80;;;3.20;;
295;SDS011;132;48.770;9.200;2023-05-07T11:50:03;3.17;;;2.90;;
295;SDS011;132;48.770;9.200;2023-05-07T11:52:36;7.03;;;3.10;;
295;SDS011;132;48.770;9.200;2023-05-07T13:57:57;4.03;;;2.47;;
295;SDS011;132;48.770;9.200;2023-05-07T14:04:30;3.63;;;2.40;;
295;SDS011;132;48.770;9.200;2023-05-07T14:06:57;3.80;;;2.50;;
295;SDS011;132;48.770;9.200;2023-05-07T14:09:24;4.10;;;2.60;;
295;SDS011;132;48.770;9.200;2023-05-07T14:11:52;9.33;;;3.60;;
295;SDS011;132;48.770;9.200;2023-05-07T14:14:22;5.20;;;2.83;;
295;SDS011;132;48.770;9.200;2023-05-07T14:16:49;5.23;;;3.03;;
295;SDS011;132;48.770;9.200;2023-05-07T14:19:15;5.73;;;3.20;;
295;SDS011;132;48.770;9.200;2023-05-07T14:21:42;3.03;;;2.53;;
295;SDS011;132;48.770;9.200;2023-05-07T14:24:08;4.87;;;2.67;;
295;SDS011;132;48.770;9.200;2023-05-07T14:26:36;8.60;;;2.70;;
295;SDS011;132;48.770;9.200;2023-05-07T14:29:03;4.90;;;2.80;;
295;SDS011;132;48.770;9.200;2023-05-07T14:31:32;5.27;;;2.80;;
295;SDS011;132;48.770;9.200;2023-05-07T14:33:59;4.20;;;2.43;;
295;SDS011;132;48.770;9.200;2023-05-07T14:36:26;3.73;;;2.60;;
295;SDS011;132;48.770;9.200;2023-05-07T14:38:53;4.33;;;2.73;;
295;SDS011;132;48.770;9.200;2023-05-07T14:41:21;4.90;;;2.60;;
295;SDS011;132;48.770;9.200;2023-05-07T14:43:48;3.70;;;2.50;;
295;SDS011;132;48.770;9.200;2023-05-07T14:46:16;6.10;;;2.70;;
295;SDS011;132;48.770;9.200;2023-05-07T14:48:46;3.30;;;2.50;;
295;SDS011;132;48.770;9.200;2023-05-07T14:51:13;3.23;;;2.37;;
295;SDS011;132;48.770;9.200;2023-05-07T14:53:41;3.03;;;2.77;;
295;SDS011;132;48.770;9.200;2023-05-07T14:56:08;4.57;;;2.80;;
295;SDS011;132;48.770;9.200;2023-05-07T14:58:34;3.43;;;2.40;;
295;SDS011;132;48.770;9.200;2023-05-07T15:01:01;2.63;;;2.40;;
295;SDS011;132;48.770;9.200;2023-05-07T15:03:28;2.40;;;2.20;;
295;SDS011;132;48.770;9.200;2023-05-07T15:05:55;2.20;;;2.07;;
295;SDS011;132;48.770;9.200;2023-05-07T15:08:22;4.17;;;2.33;;
295;SDS011;132;48.770;9.200;2023-05-07T15:10:49;3.57;;;2.40;;
295;SDS011;132;48.770;9.200;2023-05-07T15:13:16;2.63;;;2.30;;
295;SDS011;132;48.770;9.200;2023-05-07T15:15:44;4.00;;;2.20;;
295;SDS011;132;48.770;9.200;2023-05-07T15:18:11;2.40;;;2.17;;
295;SDS011;132;48.770;9.200;2023-05-07T15:20:38;2.23;;;2.03;;
295;SDS011;132;48.770;9.200;2023-05-07T15:23:06;3.00;;;2.40;;
295;SDS011;132;48.770;9.200;2023-05-07T15:25:40;2.20;;;2.10;;
295;SDS011;132;48.770;9.200;2023-05-07T15:28:10;3.30;;;2.30;;
295;SDS011;132;48.770;9.200;2023-05-07T15:30:40;2.90;;;2.60;;
295;SDS011;132;48.770;9.200;2023-05-07T15:33:11;5.43;;;3.17;;
295;SDS011;132;48.770;9.200;2023-05-07T15:35:38;8.73;;;4.03;;
295;SDS011;132;48.770;9.200;2023-05-07T15:38:05;7.33;;;4.30;;
295;SDS011;132;48.770;9.200;2023-05-07T15:40:34;5.27;;;3.50;;
295;SDS011;132;48.770;9.200;2023-05-07T15:43:03;6.70;;;4.47;;
295;SDS011;132;48.770;9.200;2023-05-07T15:45:30;6.33;;;3.70;;
295;SDS011;132;48.770;9.200;2023-05-07T15:47:57;10.20;;;4.07;;
295;SDS011;132;48.770;9.200;2023-05-07T15:50:24;5.00;;;4.10;;
295;SDS011;132;48.770;9.200;2023-05-07T15:52:52;7.83;;;4.20;;
295;SDS011;132;48.770;9.200;2023-05-07T15:55:19;7.77;;;3.83;;
295;SDS011;132;48.770;9.200;2023-05-07T15:57:46;4.50;;;3.13;;
295;SDS011;132;48.770;9.200;2023-05-07T16:00:13;4.20;;;3.60;;
295;SDS011;132;48.770;9.200;2023-05-07T16:02:42;5.00;;;4.00;;
295;SDS011;132;48.770;9.200;2023-05-07T16:05:09;4.90;;;3.57;;
295;SDS011;132;48.770;9.200;2023-05-07T16:07:36;4.90;;;3.60;;
295;SDS011;132;48.770;9.200;2023-05-07T16:10:03;5.73;;;4.50;;
295;SDS011;132;48.770;9.200;2023-05-07T16:12:31;7.73;;;4.30;;
295;SDS011;132;48.770;9.200;2023-05-07T16:14:57;6.73;;;3.80;;
295;SDS011;132;48.770;9.200;2023-05-07T16:17:24;5.07;;;3.73;;
295;SDS011;132;48.770;9.200;2023-05-07T16:19:51;6.13;;;4.07;;
295;SDS011;132;48.770;9.200;2023-05-07T16:22:18;9.33;;;4.80;;
295;SDS011;132;48.770;9.200;2023-05-07T16:24:45;4.67;;;3.97;;
295;SDS011;132;48.770;9.200;2023-05-07T16:27:12;6.73;;;3.63;;
295;SDS011;132;48.770;9.200;2023-05-07T16:29:39;6.43;;;3.90;;
295;SDS011;132;48.770;9.200;2023-05-07T16:32:06;6.67;;;4.30;;
295;SDS011;132;48.770;9.200;2023-05-07T16:34:33;5.57;;;4.70;;
295;SDS011;132;48.770;9.200;2023-05-07T16:37:01;7.97;;;5.37;;
295;SDS011;132;48.770;9.200;2023-05-07T16:39:29;9.50;;;6.40;;
295;SDS011;132;48.770;9.200;2023-05-07T16:41:57;9.80;;;6.87;;
295;SDS011;132;48.770;9.200;2023-05-07T16:44:24;7.53;;;5.53;;
295;SDS011;132;48.770;9.200;2023-05-07T16:46:51;10.30;;;5.90;;
295;SDS011;132;48.770;9.200;2023-05-07T16:49:18;9.20;;;5.00;;
295;SDS011;132;48.770;9.200;2023-05-07T16:51:45;8.23;;;5.87;;
295;SDS011;132;48.770;9.200;2023-05-07T16:54:16;7.20;;;4.93;;
295;SDS011;132;48.770;9.200;2023-05-07T16:56:45;9.13;;;6.00;;
295;SDS011;132;48.770;9.200;2023-05-07T16:59:13;11.93;;;7.57;;
295;SDS011;132;48.770;9.200;2023-05-07T17:01:40;6.73;;;5.00;;
295;SDS011;132;48.770;9.200;2023-05-07T17:04:08;11.37;;;8.20;;
295;SDS011;132;48.770;9.200;2023-05-07T17:06:44;14.33;;;7.40;;
295;SDS011;132;48.770;9.200;2023-05-07T17:16:23;11.83;;;7.03;;
295;SDS011;132;48.770;9.200;2023-05-07T17:25:34;11.50;;;7.13;;
295;SDS011;132;48.770;9.200;2023-05-07T17:28:37;8.40;;;5.87;;
295;SDS011;132;48.770;9.200;2023-05-07T17:31:14;10.67;;;6.17;;
295;SDS011;132;48.770;9.200;2023-05-07T17:33:56;14.37;;;7.07;;
295;SDS011;132;48.770;9.200;2023-05-07T17:36:25;9.93;;;6.03;;
295;SDS011;132;48.770;9.200;2023-05-07T17:38:52;14.63;;;8.60;;
295;SDS011;132;48.770;9.200;2023-05-07T17:41:19;8.57;;;5.70;;
295;SDS011;132;48.770;9.200;2023-05-07T17:43:47;10.20;;;6.70;;
295;SDS011;132;48.770;9.200;2023-05-07T17:46:14;13.43;;;8.70;;
295;SDS011;132;48.770;9.200;2023-05-07T17:48:41;10.97;;;6.83;;
295;SDS011;132;48.770;9.200;2023-05-07T17:51:08;9.57;;;6.30;;
295;SDS011;132;48.770;9.200;2023-05-07T17:53:35;13.20;;;6.70;;
295;SDS011;132;48.770;9.200;2023-05-07T17:56:02;8.87;;;6.67;;
295;SDS011;132;48.770;9.200;2023-05-07T17:58:29;10.17;;;5.90;;
295;SDS011;132;48.770;9.200;2023-05-07T18:00:56;11.60;;;7.33;;
295;SDS011;132;48.770;9.200;2023-05-07T18:03:23;8.17;;;5.93;;
295;SDS011;132;48.770;9.200;2023-05-07T18:05:50;7.83;;;5.83;;
295;SDS011;132;48.770;9.200;2023-05-07T18:08:17;7.77;;;5.80;;
295;SDS011;132;48.770;9.200;2023-05-07T18:10:44;15.77;;;9.00;;
295;SDS011;132;48.770;9.200;2023-05-07T18:13:13;8.43;;;6.10;;
295;SDS011;132;48.770;9.200;2023-05-07T18:15:40;9.80;;;6.40;;
295;SDS011;132;48.770;9.200;2023-05-07T18:18:07;6.80;;;4.97;;
295;SDS011;132;48.770;9.200;2023-05-07T18:20:34;8.73;;;6.53;;
295;SDS011;132;48.770;9.200;2023-05-07T18:23:04;7.43;;;5.30;;
295;SDS011;132;48.770;9.200;2023-05-07T18:25:46;8.20;;;5.57;;
295;SDS011;132;48.770;9.200;2023-05-07T18:28:15;8.03;;;5.80;;
295;SDS011;132;48.770;9.200;2023-05-07T18:46:51;8.70;;;5.30;;
295;SDS011;132;48.770;9.200;2023-05-07T19:33:59;13.30;;;8.93;;
295;SDS011;132;48.770;9.200;2023-05-07T19:42:31;13.33;;;9.40;;
295;SDS011;132;48.770;9.200;2023-05-07T19:44:58;14.53;;;9.40;;
295;SDS011;132;48.770;9.200;2023-05-07T19:47:26;11.23;;;7.43;;
295;SDS011;132;48.770;9.200;2023-05-07T19:50:01;10.07;;;7.37;;
295;SDS011;132;48.770;9.200;2023-05-07T19:52:38;11.60;;;9.43;;
295;SDS011;132;48.770;9.200;2023-05-07T19:55:09;14.57;;;9.33;;
295;SDS011;132;48.770;9.200;2023-05-07T19:57:36;10.30;;;6.60;;
295;SDS011;132;48.770;9.200;2023-05-07T20:00:05;8.60;;;6.80;;
295;SDS011;132;48.770;9.200;2023-05-07T20:02:39;12.60;;;6.70;;
295;SDS011;132;48.770;9.200;2023-05-07T20:05:06;8.47;;;6.23;;
295;SDS011;132;48.770;9.200;2023-05-07T20:08:23;9.80;;;5.50;;
295;SDS011;132;48.770;9.200;2023-05-07T20:10:53;6.70;;;5.80;;
295;SDS011;132;48.770;9.200;2023-05-07T20:13:34;7.10;;;4.70;;
295;SDS011;132;48.770;9.200;2023-05-07T20:16:13;5.23;;;4.20;;
295;SDS011;132;48.770;9.200;2023-05-07T20:18:40;5.33;;;4.10;;
295;SDS011;132;48.770;9.200;2023-05-07T20:21:07;5.23;;;4.57;;
295;SDS011;132;48.770;9.200;2023-05-07T20:23:36;14.60;;;6.30;;
295;SDS011;132;48.770;9.200;2023-05-07T20:26:03;7.10;;;4.90;;
295;SDS011;132;48.770;9.200;2023-05-07T20:28:30;6.17;;;5.27;;
295;SDS011;132;48.770;9.200;2023-05-07T20:30:57;5.83;;;5.10;;
295;SDS011;132;48.770;9.200;2023-05-07T20:33:23;9.47;;;5.27;;
295;SDS011;132;48.770;9.200;2023-05-07T20:35:51;8.97;;;5.20;;
295;SDS011;132;48.770;9.200;2023-05-07T20:38:21;6.30;;;5.03;;
295;SDS011;132;48.770;9.200;2023-05-07T20:40:48;8.60;;;6.00;;
295;SDS011;132;48.770;9.200;2023-05-07T20:43:15;10.07;;;7.00;;
295;SDS011;132;48.770;9.200;2023-05-07T20:45:42;8.03;;;5.47;;
295;SDS011;132;48.770;9.200;2023-05-07T20:48:08;7.77;;;5.80;;
295;SDS011;132;48.770;9.200;2023-05-07T20:50:35;9.70;;;7.17;;
295;SDS011;132;48.770;9.200;2023-05-07T20:53:04;7.83;;;6.00;;
295;SDS011;132;48.770;9.200;2023-05-07T20:55:34;14.60;;;7.50;;
295;SDS011;132;48.770;9.200;2023-05-07T20:58:02;9.03;;;6.80;;
295;SDS011;132;48.770;9.200;2023-05-07T21:00:31;11.00;;;6.93;;
295;SDS011;132;48.770;9.200;2023-05-07T21:02:58;12.67;;;6.27;;
295;SDS011;132;48.770;9.200;2023-05-07T21:05:25;6.73;;;5.50;;
295;SDS011;132;48.770;9.200;2023-05-07T21:07:52;9.50;;;7.20;;
295;SDS011;132;48.770;9.200;2023-05-07T21:10:19;7.63;;;7.00;;
295;SDS011;132;48.770;9.200;2023-05-07T21:12:46;8.50;;;6.97;;
295;SDS011;132;48.770;9.200;2023-05-07T21:15:13;13.67;;;8.80;;
295;SDS011;132;48.770;9.200;2023-05-07T21:17:39;10.20;;;6.90;;
295;SDS011;132;48.770;9.200;2023-05-07T21:20:20;13.17;;;9.80;;
295;SDS011;132;48.770;9.200;2023-05-07T21:22:47;12.10;;;8.80;;
295;SDS011;132;48.770;9.200;2023-05-07T21:25:13;14.43;;;9.57;;
295;SDS011;132;48.770;9.200;2023-05-07T21:27:41;15.30;;;10.23;;
295;SDS011;132;48.770;9.200;2023-05-07T21:30:08;19.77;;;13.10;;
295;SDS011;132;48.770;9.200;2023-05-07T21:32:35;14.50;;;11.10;;
295;SDS011;132;48.770;9.200;2023-05-07T21:35:02;14.33;;;10.80;;
295;SDS011;132;48.770;9.200;2023-05-07T21:37:30;20.20;;;13.40;;
295;SDS011;132;48.770;9.200;2023-05-07T21:39:56;26.53;;;15.03;;
295;SDS011;132;48.770;9.200;2023-05-07T21:42:23;19.70;;;13.20;;
295;SDS011;132;48.770;9.200;2023-05-07T21:44:50;16.10;;;11.87;;
295;SDS011;132;48.770;9.200;2023-05-07T21:47:17;17.03;;;12.20;;
295;SDS011;132;48.770;9.200;2023-05-07T21:49:44;18.13;;;11.47;;
295;SDS011;132;48.770;9.200;2023-05-07T21:52:11;16.30;;;10.73;;
295;SDS011;132;48.770;9.200;2023-05-07T21:54:39;14.53;;;11.00;;
295;SDS011;132;48.770;9.200;2023-05-07T21:57:06;13.20;;;8.80;;
295;SDS011;132;48.770;9.200;2023-05-07T21:59:32;15.33;;;9.73;;
295;SDS011;132;48.770;9.200;2023-05-07T22:01:59;21.63;;;13.10;;
295;SDS011;132;48.770;9.200;2023-05-07T22:04:26;17.73;;;11.53;;
295;SDS011;132;48.770;9.200;2023-05-07T22:06:52;15.73;;;8.80;;
295;SDS011;132;48.770;9.200;2023-05-07T22:09:19;10.00;;;8.07;;
295;SDS011;132;48.770;9.200;2023-05-07T22:11:46;18.20;;;10.80;;
295;SDS011;132;48.770;9.200;2023-05-07T22:14:12;20.27;;;12.00;;
295;SDS011;132;48.770;9.200;2023-05-07T22:16:39;14.47;;;10.53;;
295;SDS011;132;48.770;9.200;2023-05-07T22:19:06;26.63;;;15.20;;
295;SDS011;132;48.770;9.200;2023-05-07T22:21:32;18.33;;;12.10;;
295;SDS011;132;48.770;9.200;2023-05-07T22:23:59;21.20;;;12.30;;
295;SDS011;132;48.770;9.200;2023-05-07T22:26:26;21.77;;;12.40;;
295;SDS011;132;48.770;9.200;2023-05-07T22:28:53;23.20;;;13.30;;
295;SDS011;132;48.770;9.200;2023-05-07T22:31:19;23.10;;;14.33;;
295;SDS011;132;48.770;9.200;2023-05-07T22:33:46;27.83;;;16.20;;
295;SDS011;132;48.770;9.200;2023-05-07T22:36:13;20.13;;;12.97;;
295;SDS011;132;48.770;9.200;2023-05-07T22:38:40;19.23;;;12.37;;
295;SDS011;132;48.770;9.200;2023-05-07T22:41:07;16.80;;;11.73;;
295;SDS011;132;48.770;9.200;2023-05-07T22:43:46;16.43;;;10.90;;
295;SDS011;132;48.770;9.200;2023-05-07T22:49:58;21.03;;;13.87;;
295;SDS011;132;48.770;9.200;2023-05-07T22:52:26;23.47;;;13.80;;
295;SDS011;132;48.770;9.200;2023-05-07T22:54:53;23.87;;;15.07;;
295;SDS011;132;48.770;9.200;2023-05-07T22:57:20;27.83;;;17.33;;
295;SDS011;132;48.770;9.200;2023-05-07T22:59:47;23.23;;;15.80;;
295;SDS011;132;48.770;9.200;2023-05-07T23:02:18;42.53;;;21.67;;
295;SDS011;132;48.770;9.200;2023-05-07T23:04:45;20.17;;;14.63;;
295;SDS011;132;48.770;9.200;2023-05-07T23:07:15;22.60;;;14.57;;
295;SDS011;132;48.770;9.200;2023-05-07T23:09:43;35.10;;;19.20;;
295;SDS011;132;48.770;9.200;2023-05-07T23:12:10;15.93;;;12.03;;
295;SDS011;132;48.770;9.200;2023-05-07T23:14:40;20.00;;;12.80;;
295;SDS011;132;48.770;9.200;2023-05-07T23:39:44;25.20;;;15.67;;
295;SDS011;132;48.770;9.200;2023-05-07T23:42:23;29.40;;;15.90;;
295;SDS011;132;48.770;9.200;2023-05-07T23:44:50;25.33;;;16.50;;
295;SDS011;132;48.770;9.200;2023-05-07T23:53:42;17.80;;;12.07;;
295;SDS011;132;48.770;9.200;2023-05-07T23:57:16;18.27;;;12.47;;
